sensor_id;sensor_type;location;lat;lon;timestamp;P1;durP1;ratioP1;P2;durP2;ratioP2
49071;SDS011;52656;52.610;10.236;2023-08-21T00:00:56;8.93;;;6.10;;
49071;SDS011;52656;52.610;10.236;2023-08-21T00:03:22;8.32;;;5.75;;
49071;SDS011;52656;52.610;10.236;2023-08-21T00:05:47;8.50;;;6.10;;
49071;SDS011;52656;52.610;10.236;2023-08-21T00:08:12;8.63;;;5.78;;
49071;SDS011;52656;52.610;10.236;2023-08-21T00:10:38;8.50;;;6.07;;
49071;SDS011;52656;52.610;10.236;2023-08-21T00:13:03;8.57;;;6.10;;
49071;SDS011;52656;52.610;10.236;2023-08-21T00:15:29;8.70;;;6.00;;
49071;SDS011;52656;52.610;10.236;2023-08-21T00:17:55;8.98;;;6.30;;
49071;SDS011;52656;52.610;10.236;2023-08-21T00:20:20;11.52;;;6.80;;
49071;SDS011;52656;52.610;10.236;2023-08-21T00:22:45;11.40;;;7.07;;
49071;SDS011;52656;52.610;10.236;2023-08-21T00:25:11;7.53;;;6.50;;
49071;SDS011;52656;52.610;10.236;2023-08-21T00:27:36;10.40;;;6.60;;
49071;SDS011;52656;52.610;10.236;2023-08-21T00:30:01;10.13;;;6.88;;
49071;SDS011;52656;52.610;10.236;2023-08-21T00:32:26;9.65;;;6.78;;
49071;SDS011;52656;52.610;10.236;2023-08-21T00:34:52;11.18;;;6.60;;
49071;SDS011;52656;52.610;10.236;2023-08-21T00:37:17;11.50;;;7.10;;
49071;SDS011;52656;52.610;10.236;2023-08-21T00:39:42;12.15;;;7.10;;
49071;SDS011;52656;52.610;10.236;2023-08-21T00:42:08;8.00;;;6.28;;
49071;SDS011;52656;52.610;10.236;2023-08-21T00:44:33;9.30;;;6.80;;
49071;SDS011;52656;52.610;10.236;2023-08-21T00:46:58;13.60;;;7.05;;
49071;SDS011;52656;52.610;10.236;2023-08-21T00:49:24;7.82;;;6.20;;
49071;SDS011;52656;52.610;10.236;2023-08-21T00:51:50;9.10;;;6.75;;
49071;SDS011;52656;52.610;10.236;2023-08-21T00:54:16;8.88;;;6.45;;
49071;SDS011;52656;52.610;10.236;2023-08-21T00:56:42;7.80;;;6.22;;
49071;SDS011;52656;52.610;10.236;2023-08-21T00:59:08;12.25;;;7.25;;
49071;SDS011;52656;52.610;10.236;2023-08-21T01:01:34;8.10;;;6.10;;
49071;SDS011;52656;52.610;10.236;2023-08-21T01:04:00;11.30;;;7.07;;
49071;SDS011;52656;52.610;10.236;2023-08-21T01:06:25;10.13;;;6.43;;
49071;SDS011;52656;52.610;10.236;2023-08-21T01:09:00;9.40;;;6.97;;
49071;SDS011;52656;52.610;10.236;2023-08-21T01:17:23;12.70;;;6.75;;
49071;SDS011;52656;52.610;10.236;2023-08-21T01:19:49;11.95;;;7.10;;
49071;SDS011;52656;52.610;10.236;2023-08-21T01:22:16;10.55;;;7.05;;
49071;SDS011;52656;52.610;10.236;2023-08-21T01:24:42;9.35;;;6.50;;
49071;SDS011;52656;52.610;10.236;2023-08-21T01:27:08;8.32;;;6.40;;
49071;SDS011;52656;52.610;10.236;2023-08-21T01:29:34;9.32;;;7.18;;
49071;SDS011;52656;52.610;10.236;2023-08-21T01:35:22;11.90;;;6.80;;
49071;SDS011;52656;52.610;10.236;2023-08-21T01:37:49;9.82;;;6.57;;
49071;SDS011;52656;52.610;10.236;2023-08-21T01:40:23;10.90;;;7.03;;
49071;SDS011;52656;52.610;10.236;2023-08-21T01:42:49;10.07;;;7.43;;
49071;SDS011;52656;52.610;10.236;2023-08-21T01:45:14;11.10;;;7.63;;
49071;SDS011;52656;52.610;10.236;2023-08-21T01:47:40;10.32;;;6.90;;
49071;SDS011;52656;52.610;10.236;2023-08-21T01:50:05;9.45;;;6.90;;
49071;SDS011;52656;52.610;10.236;2023-08-21T01:52:31;9.43;;;7.43;;
49071;SDS011;52656;52.610;10.236;2023-08-21T01:54:56;9.88;;;7.05;;
49071;SDS011;52656;52.610;10.236;2023-08-21T01:57:23;7.63;;;6.85;;
49071;SDS011;52656;52.610;10.236;2023-08-21T01:59:48;8.63;;;6.93;;
49071;SDS011;52656;52.610;10.236;2023-08-21T02:02:14;10.35;;;7.43;;
49071;SDS011;52656;52.610;10.236;2023-08-21T02:04:39;9.45;;;7.78;;
49071;SDS011;52656;52.610;10.236;2023-08-21T02:07:04;9.32;;;6.97;;
49071;SDS011;52656;52.610;10.236;2023-08-21T02:09:30;8.73;;;7.15;;
49071;SDS011;52656;52.610;10.236;2023-08-21T02:11:55;7.97;;;7.18;;
49071;SDS011;52656;52.610;10.236;2023-08-21T02:14:20;8.98;;;7.25;;
49071;SDS011;52656;52.610;10.236;2023-08-21T02:16:45;10.25;;;6.95;;
49071;SDS011;52656;52.610;10.236;2023-08-21T02:19:11;7.95;;;7.05;;
49071;SDS011;52656;52.610;10.236;2023-08-21T02:21:36;10.77;;;7.03;;
49071;SDS011;52656;52.610;10.236;2023-08-21T02:24:02;10.07;;;7.68;;
49071;SDS011;52656;52.610;10.236;2023-08-21T02:26:27;11.85;;;8.43;;
49071;SDS011;52656;52.610;10.236;2023-08-21T02:28:52;9.63;;;7.00;;
49071;SDS011;52656;52.610;10.236;2023-08-21T02:31:18;8.25;;;7.45;;
49071;SDS011;52656;52.610;10.236;2023-08-21T02:33:44;10.23;;;7.38;;
49071;SDS011;52656;52.610;10.236;2023-08-21T02:36:09;11.52;;;8.77;;
49071;SDS011;52656;52.610;10.236;2023-08-21T02:38:35;11.60;;;8.05;;
49071;SDS011;52656;52.610;10.236;2023-08-21T02:41:00;13.10;;;8.20;;
49071;SDS011;52656;52.610;10.236;2023-08-21T02:43:25;11.00;;;7.47;;
49071;SDS011;52656;52.610;10.236;2023-08-21T02:45:51;11.13;;;9.20;;
49071;SDS011;52656;52.610;10.236;2023-08-21T02:48:16;11.43;;;7.55;;
49071;SDS011;52656;52.610;10.236;2023-08-21T02:50:42;10.82;;;7.57;;
49071;SDS011;52656;52.610;10.236;2023-08-21T02:53:07;11.70;;;7.50;;
49071;SDS011;52656;52.610;10.236;2023-08-21T02:55:32;11.60;;;7.22;;
49071;SDS011;52656;52.610;10.236;2023-08-21T02:57:58;11.43;;;8.55;;
49071;SDS011;52656;52.610;10.236;2023-08-21T03:00:23;10.90;;;9.23;;
49071;SDS011;52656;52.610;10.236;2023-08-21T03:02:49;10.18;;;8.23;;
49071;SDS011;52656;52.610;10.236;2023-08-21T03:05:15;10.30;;;8.10;;
49071;SDS011;52656;52.610;10.236;2023-08-21T03:07:40;10.52;;;7.82;;
49071;SDS011;52656;52.610;10.236;2023-08-21T03:10:06;9.40;;;8.18;;
49071;SDS011;52656;52.610;10.236;2023-08-21T03:12:32;15.52;;;8.80;;
49071;SDS011;52656;52.610;10.236;2023-08-21T03:14:57;9.73;;;8.52;;
49071;SDS011;52656;52.610;10.236;2023-08-21T03:17:23;10.23;;;7.85;;
49071;SDS011;52656;52.610;10.236;2023-08-21T03:19:49;8.85;;;7.68;;
49071;SDS011;52656;52.610;10.236;2023-08-21T03:22:14;9.55;;;8.15;;
49071;SDS011;52656;52.610;10.236;2023-08-21T03:24:40;10.10;;;7.60;;
49071;SDS011;52656;52.610;10.236;2023-08-21T03:27:05;9.30;;;8.20;;
49071;SDS011;52656;52.610;10.236;2023-08-21T03:29:30;8.60;;;7.28;;
49071;SDS011;52656;52.610;10.236;2023-08-21T03:31:56;9.35;;;8.27;;
49071;SDS011;52656;52.610;10.236;2023-08-21T03:34:21;9.68;;;7.40;;
49071;SDS011;52656;52.610;10.236;2023-08-21T03:36:46;8.82;;;7.97;;
49071;SDS011;52656;52.610;10.236;2023-08-21T03:39:12;9.32;;;7.50;;
49071;SDS011;52656;52.610;10.236;2023-08-21T03:41:37;13.30;;;8.20;;
49071;SDS011;52656;52.610;10.236;2023-08-21T03:44:02;8.68;;;7.85;;
49071;SDS011;52656;52.610;10.236;2023-08-21T03:46:28;11.27;;;8.27;;
49071;SDS011;52656;52.610;10.236;2023-08-21T03:48:53;13.20;;;8.38;;
49071;SDS011;52656;52.610;10.236;2023-08-21T03:51:19;9.40;;;8.40;;
49071;SDS011;52656;52.610;10.236;2023-08-21T03:53:44;12.48;;;8.23;;
49071;SDS011;52656;52.610;10.236;2023-08-21T03:58:34;9.93;;;8.37;;
49071;SDS011;52656;52.610;10.236;2023-08-21T04:03:25;9.75;;;8.48;;
49071;SDS011;52656;52.610;10.236;2023-08-21T04:05:52;11.20;;;9.00;;
49071;SDS011;52656;52.610;10.236;2023-08-21T04:08:19;11.55;;;9.13;;
49071;SDS011;52656;52.610;10.236;2023-08-21T04:10:44;12.00;;;8.65;;
49071;SDS011;52656;52.610;10.236;2023-08-21T04:13:09;11.95;;;9.15;;
49071;SDS011;52656;52.610;10.236;2023-08-21T04:15:35;11.60;;;9.02;;
49071;SDS011;52656;52.610;10.236;2023-08-21T04:18:00;10.43;;;8.82;;
49071;SDS011;52656;52.610;10.236;2023-08-21T04:20:26;10.38;;;9.13;;
49071;SDS011;52656;52.610;10.236;2023-08-21T04:22:51;10.38;;;9.15;;
49071;SDS011;52656;52.610;10.236;2023-08-21T04:25:16;11.90;;;8.88;;
49071;SDS011;52656;52.610;10.236;2023-08-21T04:27:42;10.82;;;8.98;;
49071;SDS011;52656;52.610;10.236;2023-08-21T04:30:08;11.73;;;9.88;;
49071;SDS011;52656;52.610;10.236;2023-08-21T04:32:34;12.82;;;9.82;;
49071;SDS011;52656;52.610;10.236;2023-08-21T04:34:59;12.65;;;9.18;;
49071;SDS011;52656;52.610;10.236;2023-08-21T04:37:25;11.93;;;10.57;;
49071;SDS011;52656;52.610;10.236;2023-08-21T04:39:51;11.55;;;9.50;;
49071;SDS011;52656;52.610;10.236;2023-08-21T04:42:17;11.68;;;9.45;;
49071;SDS011;52656;52.610;10.236;2023-08-21T04:44:42;13.38;;;9.35;;
49071;SDS011;52656;52.610;10.236;2023-08-21T04:49:51;10.25;;;8.55;;
49071;SDS011;52656;52.610;10.236;2023-08-21T04:52:17;9.55;;;8.57;;
49071;SDS011;52656;52.610;10.236;2023-08-21T04:54:43;11.18;;;8.00;;
49071;SDS011;52656;52.610;10.236;2023-08-21T04:57:09;11.27;;;7.53;;
49071;SDS011;52656;52.610;10.236;2023-08-21T04:59:35;9.85;;;7.93;;
49071;SDS011;52656;52.610;10.236;2023-08-21T05:02:01;9.45;;;7.38;;
49071;SDS011;52656;52.610;10.236;2023-08-21T05:04:26;9.82;;;7.97;;
49071;SDS011;52656;52.610;10.236;2023-08-21T05:06:51;9.48;;;7.70;;
49071;SDS011;52656;52.610;10.236;2023-08-21T05:09:17;11.38;;;7.38;;
49071;SDS011;52656;52.610;10.236;2023-08-21T05:11:42;10.05;;;7.05;;
49071;SDS011;52656;52.610;10.236;2023-08-21T05:14:07;9.52;;;7.25;;
49071;SDS011;52656;52.610;10.236;2023-08-21T05:16:33;10.13;;;7.00;;
49071;SDS011;52656;52.610;10.236;2023-08-21T05:18:58;9.88;;;7.13;;
49071;SDS011;52656;52.610;10.236;2023-08-21T05:21:24;12.18;;;7.60;;
49071;SDS011;52656;52.610;10.236;2023-08-21T05:23:50;12.40;;;7.70;;
49071;SDS011;52656;52.610;10.236;2023-08-21T05:26:15;11.10;;;7.43;;
49071;SDS011;52656;52.610;10.236;2023-08-21T05:28:40;8.32;;;6.45;;
49071;SDS011;52656;52.610;10.236;2023-08-21T05:31:05;9.95;;;7.03;;
49071;SDS011;52656;52.610;10.236;2023-08-21T05:33:31;10.65;;;6.03;;
49071;SDS011;52656;52.610;10.236;2023-08-21T05:35:56;8.05;;;6.20;;
49071;SDS011;52656;52.610;10.236;2023-08-21T05:38:22;8.02;;;5.60;;
49071;SDS011;52656;52.610;10.236;2023-08-21T05:40:48;10.85;;;6.03;;
49071;SDS011;52656;52.610;10.236;2023-08-21T05:43:13;6.90;;;5.53;;
49071;SDS011;52656;52.610;10.236;2023-08-21T05:45:38;7.78;;;5.20;;
49071;SDS011;52656;52.610;10.236;2023-08-21T05:48:04;6.47;;;4.40;;
49071;SDS011;52656;52.610;10.236;2023-08-21T05:50:29;9.85;;;5.18;;
49071;SDS011;52656;52.610;10.236;2023-08-21T05:52:55;7.63;;;5.15;;
49071;SDS011;52656;52.610;10.236;2023-08-21T05:55:22;7.30;;;4.88;;
49071;SDS011;52656;52.610;10.236;2023-08-21T05:57:47;11.10;;;5.00;;
49071;SDS011;52656;52.610;10.236;2023-08-21T06:00:13;7.70;;;4.85;;
49071;SDS011;52656;52.610;10.236;2023-08-21T06:02:39;7.80;;;4.68;;
49071;SDS011;52656;52.610;10.236;2023-08-21T06:05:05;7.13;;;4.55;;
49071;SDS011;52656;52.610;10.236;2023-08-21T06:07:32;11.07;;;5.00;;
49071;SDS011;52656;52.610;10.236;2023-08-21T06:09:57;7.85;;;4.15;;
49071;SDS011;52656;52.610;10.236;2023-08-21T06:12:22;9.52;;;4.10;;
49071;SDS011;52656;52.610;10.236;2023-08-21T06:14:48;6.82;;;4.28;;
49071;SDS011;52656;52.610;10.236;2023-08-21T06:17:13;7.35;;;4.13;;
49071;SDS011;52656;52.610;10.236;2023-08-21T06:19:38;8.07;;;4.10;;
49071;SDS011;52656;52.610;10.236;2023-08-21T06:22:04;8.05;;;3.70;;
49071;SDS011;52656;52.610;10.236;2023-08-21T06:24:30;9.43;;;4.13;;
49071;SDS011;52656;52.610;10.236;2023-08-21T06:26:55;9.88;;;4.13;;
49071;SDS011;52656;52.610;10.236;2023-08-21T06:29:21;7.07;;;3.70;;
49071;SDS011;52656;52.610;10.236;2023-08-21T06:31:46;6.07;;;3.85;;
49071;SDS011;52656;52.610;10.236;2023-08-21T06:34:12;7.88;;;4.40;;
49071;SDS011;52656;52.610;10.236;2023-08-21T06:36:37;9.63;;;4.03;;
49071;SDS011;52656;52.610;10.236;2023-08-21T06:39:03;7.75;;;3.88;;
49071;SDS011;52656;52.610;10.236;2023-08-21T06:41:28;9.05;;;3.88;;
49071;SDS011;52656;52.610;10.236;2023-08-21T06:43:54;8.57;;;3.45;;
49071;SDS011;52656;52.610;10.236;2023-08-21T06:46:19;7.45;;;3.75;;
49071;SDS011;52656;52.610;10.236;2023-08-21T06:48:45;8.05;;;3.80;;
49071;SDS011;52656;52.610;10.236;2023-08-21T06:51:11;8.32;;;3.75;;
49071;SDS011;52656;52.610;10.236;2023-08-21T06:53:36;7.90;;;4.10;;
49071;SDS011;52656;52.610;10.236;2023-08-21T06:56:02;9.27;;;3.30;;
49071;SDS011;52656;52.610;10.236;2023-08-21T06:58:27;9.77;;;3.35;;
49071;SDS011;52656;52.610;10.236;2023-08-21T07:00:54;9.02;;;3.72;;
49071;SDS011;52656;52.610;10.236;2023-08-21T07:03:20;14.80;;;3.67;;
49071;SDS011;52656;52.610;10.236;2023-08-21T07:05:46;8.73;;;3.15;;
49071;SDS011;52656;52.610;10.236;2023-08-21T07:08:18;7.90;;;3.45;;
49071;SDS011;52656;52.610;10.236;2023-08-21T07:10:43;8.73;;;3.10;;
49071;SDS011;52656;52.610;10.236;2023-08-21T07:13:09;7.90;;;3.30;;
49071;SDS011;52656;52.610;10.236;2023-08-21T07:15:34;6.82;;;2.80;;
49071;SDS011;52656;52.610;10.236;2023-08-21T07:17:59;7.63;;;2.95;;
49071;SDS011;52656;52.610;10.236;2023-08-21T07:20:24;8.13;;;2.95;;
49071;SDS011;52656;52.610;10.236;2023-08-21T07:22:50;6.20;;;2.70;;
49071;SDS011;52656;52.610;10.236;2023-08-21T07:25:15;9.43;;;3.10;;
49071;SDS011;52656;52.610;10.236;2023-08-21T07:27:40;7.68;;;2.70;;
49071;SDS011;52656;52.610;10.236;2023-08-21T07:30:06;6.72;;;2.67;;
49071;SDS011;52656;52.610;10.236;2023-08-21T07:32:32;6.85;;;2.72;;
49071;SDS011;52656;52.610;10.236;2023-08-21T07:34:57;7.55;;;3.03;;
49071;SDS011;52656;52.610;10.236;2023-08-21T07:37:22;9.57;;;3.35;;
49071;SDS011;52656;52.610;10.236;2023-08-21T07:39:48;7.32;;;2.50;;
49071;SDS011;52656;52.610;10.236;2023-08-21T07:42:13;6.78;;;2.40;;
49071;SDS011;52656;52.610;10.236;2023-08-21T07:44:39;5.47;;;2.38;;
49071;SDS011;52656;52.610;10.236;2023-08-21T07:47:05;13.18;;;2.80;;
49071;SDS011;52656;52.610;10.236;2023-08-21T07:49:31;5.45;;;2.05;;
49071;SDS011;52656;52.610;10.236;2023-08-21T07:51:57;7.15;;;2.13;;
49071;SDS011;52656;52.610;10.236;2023-08-21T07:54:22;8.10;;;2.30;;
49071;SDS011;52656;52.610;10.236;2023-08-21T07:56:49;8.77;;;2.63;;
49071;SDS011;52656;52.610;10.236;2023-08-21T07:59:14;10.02;;;2.42;;
49071;SDS011;52656;52.610;10.236;2023-08-21T08:01:39;6.20;;;2.20;;
49071;SDS011;52656;52.610;10.236;2023-08-21T08:04:05;5.03;;;1.80;;
49071;SDS011;52656;52.610;10.236;2023-08-21T08:06:31;7.57;;;1.98;;
49071;SDS011;52656;52.610;10.236;2023-08-21T08:08:56;8.63;;;1.88;;
49071;SDS011;52656;52.610;10.236;2023-08-21T08:11:22;6.88;;;1.80;;
49071;SDS011;52656;52.610;10.236;2023-08-21T08:13:47;6.57;;;2.03;;
49071;SDS011;52656;52.610;10.236;2023-08-21T08:16:13;4.75;;;2.13;;
49071;SDS011;52656;52.610;10.236;2023-08-21T08:18:38;7.15;;;1.70;;
49071;SDS011;52656;52.610;10.236;2023-08-21T08:21:03;4.70;;;1.73;;
49071;SDS011;52656;52.610;10.236;2023-08-21T08:23:29;6.68;;;2.13;;
49071;SDS011;52656;52.610;10.236;2023-08-21T08:25:55;6.28;;;1.80;;
49071;SDS011;52656;52.610;10.236;2023-08-21T08:28:20;7.00;;;2.08;;
49071;SDS011;52656;52.610;10.236;2023-08-21T08:30:45;6.38;;;2.25;;
49071;SDS011;52656;52.610;10.236;2023-08-21T08:33:11;7.25;;;2.13;;
49071;SDS011;52656;52.610;10.236;2023-08-21T08:35:36;5.80;;;2.10;;
49071;SDS011;52656;52.610;10.236;2023-08-21T08:38:01;6.32;;;2.40;;
49071;SDS011;52656;52.610;10.236;2023-08-21T08:40:27;7.57;;;2.22;;
49071;SDS011;52656;52.610;10.236;2023-08-21T08:42:53;8.57;;;2.30;;
49071;SDS011;52656;52.610;10.236;2023-08-21T08:45:20;7.15;;;2.17;;
49071;SDS011;52656;52.610;10.236;2023-08-21T08:47:55;6.03;;;2.42;;
49071;SDS011;52656;52.610;10.236;2023-08-21T08:50:22;6.18;;;1.80;;
49071;SDS011;52656;52.610;10.236;2023-08-21T08:52:49;6.90;;;2.05;;
49071;SDS011;52656;52.610;10.236;2023-08-21T08:55:14;7.63;;;2.17;;
49071;SDS011;52656;52.610;10.236;2023-08-21T08:57:39;9.10;;;2.45;;
49071;SDS011;52656;52.610;10.236;2023-08-21T09:00:05;8.13;;;2.50;;
49071;SDS011;52656;52.610;10.236;2023-08-21T09:02:31;5.85;;;1.90;;
49071;SDS011;52656;52.610;10.236;2023-08-21T09:04:56;7.85;;;2.10;;
49071;SDS011;52656;52.610;10.236;2023-08-21T09:07:21;6.03;;;1.70;;
49071;SDS011;52656;52.610;10.236;2023-08-21T09:09:48;7.57;;;2.20;;
49071;SDS011;52656;52.610;10.236;2023-08-21T09:12:17;6.70;;;2.28;;
49071;SDS011;52656;52.610;10.236;2023-08-21T09:14:44;6.88;;;2.17;;
49071;SDS011;52656;52.610;10.236;2023-08-21T09:17:10;7.22;;;2.25;;
49071;SDS011;52656;52.610;10.236;2023-08-21T09:19:36;6.05;;;1.77;;
49071;SDS011;52656;52.610;10.236;2023-08-21T09:22:08;5.18;;;1.67;;
49071;SDS011;52656;52.610;10.236;2023-08-21T09:24:59;4.97;;;1.83;;
49071;SDS011;52656;52.610;10.236;2023-08-21T09:29:55;6.23;;;1.70;;
49071;SDS011;52656;52.610;10.236;2023-08-21T09:32:20;4.57;;;1.80;;
49071;SDS011;52656;52.610;10.236;2023-08-21T09:34:46;6.93;;;2.03;;
49071;SDS011;52656;52.610;10.236;2023-08-21T09:37:11;4.28;;;1.70;;
49071;SDS011;52656;52.610;10.236;2023-08-21T09:39:36;9.80;;;2.15;;
49071;SDS011;52656;52.610;10.236;2023-08-21T09:42:11;6.18;;;1.88;;
49071;SDS011;52656;52.610;10.236;2023-08-21T09:44:37;8.70;;;1.92;;
49071;SDS011;52656;52.610;10.236;2023-08-21T09:47:04;7.55;;;2.22;;
49071;SDS011;52656;52.610;10.236;2023-08-21T09:49:32;5.28;;;1.83;;
49071;SDS011;52656;52.610;10.236;2023-08-21T09:51:59;6.00;;;1.70;;
49071;SDS011;52656;52.610;10.236;2023-08-21T09:54:26;4.93;;;1.75;;
49071;SDS011;52656;52.610;10.236;2023-08-21T09:56:52;4.07;;;1.80;;
49071;SDS011;52656;52.610;10.236;2023-08-21T09:59:17;4.85;;;1.65;;
49071;SDS011;52656;52.610;10.236;2023-08-21T10:01:43;5.28;;;1.65;;
49071;SDS011;52656;52.610;10.236;2023-08-21T10:04:11;4.50;;;1.60;;
49071;SDS011;52656;52.610;10.236;2023-08-21T10:06:38;4.50;;;1.65;;
49071;SDS011;52656;52.610;10.236;2023-08-21T10:09:04;4.70;;;1.67;;
49071;SDS011;52656;52.610;10.236;2023-08-21T10:11:29;5.57;;;1.65;;
49071;SDS011;52656;52.610;10.236;2023-08-21T10:13:55;5.13;;;1.63;;
49071;SDS011;52656;52.610;10.236;2023-08-21T10:16:21;3.90;;;1.30;;
49071;SDS011;52656;52.610;10.236;2023-08-21T10:18:47;4.95;;;1.42;;
49071;SDS011;52656;52.610;10.236;2023-08-21T10:21:13;3.70;;;1.48;;
49071;SDS011;52656;52.610;10.236;2023-08-21T10:23:41;6.15;;;1.40;;
49071;SDS011;52656;52.610;10.236;2023-08-21T10:26:07;5.72;;;1.52;;
49071;SDS011;52656;52.610;10.236;2023-08-21T10:31:35;4.47;;;1.40;;
49071;SDS011;52656;52.610;10.236;2023-08-21T10:34:08;2.90;;;1.15;;
49071;SDS011;52656;52.610;10.236;2023-08-21T10:39:19;3.63;;;1.30;;
49071;SDS011;52656;52.610;10.236;2023-08-21T10:41:55;3.28;;;1.45;;
49071;SDS011;52656;52.610;10.236;2023-08-21T10:47:17;6.43;;;1.45;;
49071;SDS011;52656;52.610;10.236;2023-08-21T10:49:57;4.68;;;1.30;;
49071;SDS011;52656;52.610;10.236;2023-08-21T10:54:53;4.00;;;1.50;;
49071;SDS011;52656;52.610;10.236;2023-08-21T10:57:21;3.72;;;1.20;;
49071;SDS011;52656;52.610;10.236;2023-08-21T11:02:17;5.43;;;1.65;;
49071;SDS011;52656;52.610;10.236;2023-08-21T11:04:43;3.85;;;1.40;;
49071;SDS011;52656;52.610;10.236;2023-08-21T11:07:09;4.40;;;1.58;;
49071;SDS011;52656;52.610;10.236;2023-08-21T11:09:35;3.00;;;1.30;;
49071;SDS011;52656;52.610;10.236;2023-08-21T11:12:05;4.15;;;1.10;;
49071;SDS011;52656;52.610;10.236;2023-08-21T11:14:32;5.47;;;1.50;;
49071;SDS011;52656;52.610;10.236;2023-08-21T11:16:58;4.50;;;1.45;;
49071;SDS011;52656;52.610;10.236;2023-08-21T11:19:24;5.32;;;1.30;;
49071;SDS011;52656;52.610;10.236;2023-08-21T11:21:52;3.40;;;1.15;;
49071;SDS011;52656;52.610;10.236;2023-08-21T11:24:17;4.60;;;1.40;;
49071;SDS011;52656;52.610;10.236;2023-08-21T11:26:43;3.72;;;1.20;;
49071;SDS011;52656;52.610;10.236;2023-08-21T11:29:08;5.68;;;1.58;;
49071;SDS011;52656;52.610;10.236;2023-08-21T11:31:33;2.97;;;1.50;;
49071;SDS011;52656;52.610;10.236;2023-08-21T11:33:59;3.30;;;1.15;;
49071;SDS011;52656;52.610;10.236;2023-08-21T11:36:24;3.53;;;1.35;;
49071;SDS011;52656;52.610;10.236;2023-08-21T11:38:59;4.75;;;1.52;;
49071;SDS011;52656;52.610;10.236;2023-08-21T11:41:25;4.50;;;1.20;;
49071;SDS011;52656;52.610;10.236;2023-08-21T11:43:51;4.38;;;1.40;;
49071;SDS011;52656;52.610;10.236;2023-08-21T11:46:17;3.72;;;1.30;;
49071;SDS011;52656;52.610;10.236;2023-08-21T11:48:44;4.55;;;1.20;;
49071;SDS011;52656;52.610;10.236;2023-08-21T11:51:10;5.70;;;1.67;;
49071;SDS011;52656;52.610;10.236;2023-08-21T11:53:37;2.35;;;1.00;;
49071;SDS011;52656;52.610;10.236;2023-08-21T11:56:10;4.82;;;1.42;;
49071;SDS011;52656;52.610;10.236;2023-08-21T11:58:42;4.68;;;1.30;;
49071;SDS011;52656;52.610;10.236;2023-08-21T12:01:10;4.65;;;1.15;;
49071;SDS011;52656;52.610;10.236;2023-08-21T12:03:39;4.15;;;1.40;;
49071;SDS011;52656;52.610;10.236;2023-08-21T12:06:06;2.20;;;0.93;;
49071;SDS011;52656;52.610;10.236;2023-08-21T12:08:32;4.45;;;1.20;;
49071;SDS011;52656;52.610;10.236;2023-08-21T12:10:57;4.65;;;1.27;;
49071;SDS011;52656;52.610;10.236;2023-08-21T12:13:22;2.78;;;1.10;;
49071;SDS011;52656;52.610;10.236;2023-08-21T12:15:47;5.65;;;1.60;;
49071;SDS011;52656;52.610;10.236;2023-08-21T12:18:13;4.28;;;1.23;;
49071;SDS011;52656;52.610;10.236;2023-08-21T12:20:38;3.47;;;1.20;;
49071;SDS011;52656;52.610;10.236;2023-08-21T12:23:03;3.65;;;0.98;;
49071;SDS011;52656;52.610;10.236;2023-08-21T12:25:29;5.05;;;1.10;;
49071;SDS011;52656;52.610;10.236;2023-08-21T12:27:56;4.00;;;1.15;;
49071;SDS011;52656;52.610;10.236;2023-08-21T12:30:22;4.28;;;0.90;;
49071;SDS011;52656;52.610;10.236;2023-08-21T12:32:47;2.60;;;0.90;;
49071;SDS011;52656;52.610;10.236;2023-08-21T12:35:12;3.67;;;1.13;;
49071;SDS011;52656;52.610;10.236;2023-08-21T12:37:38;3.28;;;1.02;;
49071;SDS011;52656;52.610;10.236;2023-08-21T12:40:03;3.20;;;1.35;;
49071;SDS011;52656;52.610;10.236;2023-08-21T12:42:29;3.03;;;1.20;;
49071;SDS011;52656;52.610;10.236;2023-08-21T12:44:54;2.75;;;0.95;;
49071;SDS011;52656;52.610;10.236;2023-08-21T12:47:20;3.28;;;1.33;;
49071;SDS011;52656;52.610;10.236;2023-08-21T12:49:45;3.15;;;1.08;;
49071;SDS011;52656;52.610;10.236;2023-08-21T12:52:10;2.03;;;0.90;;
49071;SDS011;52656;52.610;10.236;2023-08-21T12:54:37;1.85;;;0.70;;
49071;SDS011;52656;52.610;10.236;2023-08-21T12:57:03;3.95;;;1.27;;
49071;SDS011;52656;52.610;10.236;2023-08-21T12:59:29;3.42;;;1.08;;
49071;SDS011;52656;52.610;10.236;2023-08-21T13:01:54;3.90;;;0.93;;
49071;SDS011;52656;52.610;10.236;2023-08-21T13:04:19;3.05;;;0.90;;
49071;SDS011;52656;52.610;10.236;2023-08-21T13:06:45;2.85;;;0.90;;
49071;SDS011;52656;52.610;10.236;2023-08-21T13:09:10;2.67;;;1.15;;
49071;SDS011;52656;52.610;10.236;2023-08-21T13:11:35;2.38;;;0.93;;
49071;SDS011;52656;52.610;10.236;2023-08-21T13:14:00;2.05;;;0.80;;
49071;SDS011;52656;52.610;10.236;2023-08-21T13:16:26;3.83;;;0.75;;
49071;SDS011;52656;52.610;10.236;2023-08-21T13:18:51;3.90;;;1.15;;
49071;SDS011;52656;52.610;10.236;2023-08-21T13:21:16;3.20;;;1.13;;
49071;SDS011;52656;52.610;10.236;2023-08-21T13:23:42;2.70;;;1.00;;
49071;SDS011;52656;52.610;10.236;2023-08-21T13:26:07;4.10;;;1.10;;
49071;SDS011;52656;52.610;10.236;2023-08-21T13:28:32;2.70;;;1.00;;
49071;SDS011;52656;52.610;10.236;2023-08-21T13:30:59;3.55;;;1.20;;
49071;SDS011;52656;52.610;10.236;2023-08-21T13:33:24;7.13;;;1.30;;
49071;SDS011;52656;52.610;10.236;2023-08-21T13:35:50;2.90;;;0.88;;
49071;SDS011;52656;52.610;10.236;2023-08-21T13:38:16;1.85;;;0.88;;
49071;SDS011;52656;52.610;10.236;2023-08-21T13:40:41;4.00;;;1.10;;
49071;SDS011;52656;52.610;10.236;2023-08-21T13:43:07;2.28;;;0.95;;
49071;SDS011;52656;52.610;10.236;2023-08-21T13:45:34;1.98;;;0.85;;
49071;SDS011;52656;52.610;10.236;2023-08-21T13:48:00;3.65;;;1.38;;
49071;SDS011;52656;52.610;10.236;2023-08-21T13:50:25;3.20;;;1.30;;
49071;SDS011;52656;52.610;10.236;2023-08-21T13:52:51;5.43;;;1.48;;
49071;SDS011;52656;52.610;10.236;2023-08-21T13:55:16;2.47;;;1.08;;
49071;SDS011;52656;52.610;10.236;2023-08-21T13:57:42;2.72;;;1.10;;
49071;SDS011;52656;52.610;10.236;2023-08-21T14:00:08;3.42;;;1.27;;
49071;SDS011;52656;52.610;10.236;2023-08-21T14:02:38;2.67;;;1.00;;
49071;SDS011;52656;52.610;10.236;2023-08-21T14:05:05;2.58;;;1.05;;
49071;SDS011;52656;52.610;10.236;2023-08-21T14:07:34;2.88;;;1.08;;
49071;SDS011;52656;52.610;10.236;2023-08-21T14:10:00;5.82;;;1.20;;
49071;SDS011;52656;52.610;10.236;2023-08-21T14:12:27;1.92;;;0.90;;
49071;SDS011;52656;52.610;10.236;2023-08-21T14:14:54;2.65;;;0.98;;
49071;SDS011;52656;52.610;10.236;2023-08-21T14:17:19;4.55;;;1.30;;
49071;SDS011;52656;52.610;10.236;2023-08-21T14:19:45;0.80;;;0.50;;
49071;SDS011;52656;52.610;10.236;2023-08-21T14:22:10;3.75;;;1.45;;
49071;SDS011;52656;52.610;10.236;2023-08-21T14:24:35;2.40;;;1.00;;
49071;SDS011;52656;52.610;10.236;2023-08-21T14:27:00;2.30;;;1.00;;
49071;SDS011;52656;52.610;10.236;2023-08-21T14:29:26;2.45;;;1.20;;
49071;SDS011;52656;52.610;10.236;2023-08-21T14:31:51;2.28;;;0.90;;
49071;SDS011;52656;52.610;10.236;2023-08-21T14:34:18;3.08;;;0.98;;
49071;SDS011;52656;52.610;10.236;2023-08-21T14:36:45;3.35;;;1.23;;
49071;SDS011;52656;52.610;10.236;2023-08-21T14:39:10;3.42;;;1.00;;
49071;SDS011;52656;52.610;10.236;2023-08-21T14:41:36;3.00;;;1.00;;
49071;SDS011;52656;52.610;10.236;2023-08-21T14:44:08;2.47;;;1.10;;
49071;SDS011;52656;52.610;10.236;2023-08-21T14:46:34;4.05;;;1.05;;
49071;SDS011;52656;52.610;10.236;2023-08-21T14:48:59;2.80;;;1.08;;
49071;SDS011;52656;52.610;10.236;2023-08-21T14:51:25;2.65;;;1.20;;
49071;SDS011;52656;52.610;10.236;2023-08-21T14:53:50;3.45;;;1.40;;
49071;SDS011;52656;52.610;10.236;2023-08-21T14:56:15;4.10;;;1.05;;